sensor_id;sensor_type;location;lat;lon;timestamp;pressure;altitude;pressure_sealevel;temperature;humidity
10392;BME280;5242;49.244;6.774;2023-05-24T00:00:29;100040.31;;;9.97;nan
10392;BME280;5242;49.244;6.774;2023-05-24T00:08:21;100034.88;;;9.85;nan
10392;BME280;5242;49.244;6.774;2023-05-24T00:16:13;100027.41;;;9.94;nan
10392;BME280;5242;49.244;6.774;2023-05-24T00:24:05;100009.97;;;9.95;nan
10392;BME280;5242;49.244;6.774;2023-05-24T00:31:57;100012.31;;;9.96;nan
10392;BME280;5242;49.244;6.774;2023-05-24T00:39:49;100005.53;;;9.90;nan
10392;BME280;5242;49.244;6.774;2023-05-24T00:47:41;99992.50;;;9.96;nan
10392;BME280;5242;49.244;6.774;2023-05-24T00:55:34;100005.88;;;10.01;nan
10392;BME280;5242;49.244;6.774;2023-05-24T01:03:27;100004.72;;;9.90;nan
10392;BME280;5242;49.244;6.774;2023-05-24T01:19:47;100012.00;;;9.98;nan
10392;BME280;5242;49.244;6.774;2023-05-24T01:27:41;100014.94;;;9.93;nan
10392;BME280;5242;49.244;6.774;2023-05-24T01:35:34;100021.72;;;9.87;nan
10392;BME280;5242;49.244;6.774;2023-05-24T01:43:37;100019.66;;;9.84;nan
10392;BME280;5242;49.244;6.774;2023-05-24T01:51:46;100029.88;;;9.74;nan
10392;BME280;5242;49.244;6.774;2023-05-24T01:59:41;100029.59;;;9.67;nan
10392;BME280;5242;49.244;6.774;2023-05-24T02:07:33;100033.66;;;9.61;nan
10392;BME280;5242;49.244;6.774;2023-05-24T02:15:26;100044.72;;;9.56;nan
10392;BME280;5242;49.244;6.774;2023-05-24T02:23:21;100046.53;;;9.52;nan
10392;BME280;5242;49.244;6.774;2023-05-24T02:31:12;100049.00;;;9.45;nan
10392;BME280;5242;49.244;6.774;2023-05-24T02:39:04;100033.41;;;9.33;nan
10392;BME280;5242;49.244;6.774;2023-05-24T02:46:56;100020.09;;;9.19;nan
10392;BME280;5242;49.244;6.774;2023-05-24T02:54:49;100027.53;;;9.10;nan
10392;BME280;5242;49.244;6.774;2023-05-24T03:02:41;100026.34;;;8.99;nan
10392;BME280;5242;49.244;6.774;2023-05-24T03:10:33;100030.81;;;8.95;nan
10392;BME280;5242;49.244;6.774;2023-05-24T03:18:25;100027.19;;;8.90;nan
10392;BME280;5242;49.244;6.774;2023-05-24T03:26:17;100029.75;;;8.87;nan
10392;BME280;5242;49.244;6.774;2023-05-24T03:34:09;100033.34;;;8.79;nan
10392;BME280;5242;49.244;6.774;2023-05-24T03:42:01;100042.34;;;8.70;nan
10392;BME280;5242;49.244;6.774;2023-05-24T03:49:53;100038.34;;;8.68;nan
10392;BME280;5242;49.244;6.774;2023-05-24T03:57:45;100035.44;;;8.73;nan
10392;BME280;5242;49.244;6.774;2023-05-24T04:05:37;100042.47;;;8.74;nan
10392;BME280;5242;49.244;6.774;2023-05-24T04:13:29;100051.63;;;8.69;nan
10392;BME280;5242;49.244;6.774;2023-05-24T04:21:22;100060.38;;;8.75;nan
10392;BME280;5242;49.244;6.774;2023-05-24T04:29:14;100062.03;;;8.88;nan
10392;BME280;5242;49.244;6.774;2023-05-24T04:37:06;100065.94;;;9.00;nan
10392;BME280;5242;49.244;6.774;2023-05-24T04:44:58;100049.81;;;9.24;nan
10392;BME280;5242;49.244;6.774;2023-05-24T04:52:50;100056.47;;;9.48;nan
10392;BME280;5242;49.244;6.774;2023-05-24T05:00:42;100055.88;;;9.63;nan
10392;BME280;5242;49.244;6.774;2023-05-24T05:08:35;100045.50;;;9.77;nan
10392;BME280;5242;49.244;6.774;2023-05-24T05:16:27;100043.03;;;9.97;nan
10392;BME280;5242;49.244;6.774;2023-05-24T05:24:19;100057.38;;;10.06;nan
10392;BME280;5242;49.244;6.774;2023-05-24T05:32:11;100047.66;;;10.30;nan
10392;BME280;5242;49.244;6.774;2023-05-24T05:40:03;100064.47;;;10.32;nan
10392;BME280;5242;49.244;6.774;2023-05-24T05:47:55;100066.44;;;10.56;nan
10392;BME280;5242;49.244;6.774;2023-05-24T05:55:47;100060.84;;;10.89;nan
10392;BME280;5242;49.244;6.774;2023-05-24T06:03:39;100059.69;;;11.02;nan
10392;BME280;5242;49.244;6.774;2023-05-24T06:11:32;100069.44;;;11.16;nan
10392;BME280;5242;49.244;6.774;2023-05-24T06:19:24;100076.50;;;11.45;nan
10392;BME280;5242;49.244;6.774;2023-05-24T06:27:18;100082.78;;;11.73;nan
10392;BME280;5242;49.244;6.774;2023-05-24T06:35:09;100071.16;;;11.89;nan
10392;BME280;5242;49.244;6.774;2023-05-24T06:43:02;100067.94;;;12.15;nan
10392;BME280;5242;49.244;6.774;2023-05-24T06:50:54;100079.72;;;12.82;nan
10392;BME280;5242;49.244;6.774;2023-05-24T06:58:46;100075.31;;;13.13;nan
10392;BME280;5242;49.244;6.774;2023-05-24T07:06:38;100079.56;;;13.46;nan
10392;BME280;5242;49.244;6.774;2023-05-24T07:14:30;100081.09;;;14.05;nan
10392;BME280;5242;49.244;6.774;2023-05-24T07:22:22;100086.38;;;14.37;nan
10392;BME280;5242;49.244;6.774;2023-05-24T07:30:16;100091.84;;;14.83;nan
10392;BME280;5242;49.244;6.774;2023-05-24T07:38:22;100100.28;;;14.97;nan
10392;BME280;5242;49.244;6.774;2023-05-24T07:46:14;100105.13;;;15.08;nan
10392;BME280;5242;49.244;6.774;2023-05-24T07:54:06;100105.91;;;15.35;nan
10392;BME280;5242;49.244;6.774;2023-05-24T08:01:58;100097.03;;;15.75;nan
10392;BME280;5242;49.244;6.774;2023-05-24T08:09:54;100112.53;;;15.94;nan
10392;BME280;5242;49.244;6.774;2023-05-24T08:17:47;100113.75;;;16.38;nan
10392;BME280;5242;49.244;6.774;2023-05-24T08:25:39;100100.53;;;16.50;nan
10392;BME280;5242;49.244;6.774;2023-05-24T08:33:31;100105.00;;;16.69;nan
10392;BME280;5242;49.244;6.774;2023-05-24T08:41:23;100091.53;;;17.89;nan
10392;BME280;5242;49.244;6.774;2023-05-24T08:49:16;100107.00;;;18.90;nan
10392;BME280;5242;49.244;6.774;2023-05-24T08:57:09;100097.25;;;19.88;nan
10392;BME280;5242;49.244;6.774;2023-05-24T09:05:03;100089.22;;;20.68;nan
10392;BME280;5242;49.244;6.774;2023-05-24T09:12:57;100094.53;;;21.65;nan
10392;BME280;5242;49.244;6.774;2023-05-24T09:20:52;100085.59;;;22.39;nan
10392;BME280;5242;49.244;6.774;2023-05-24T09:28:46;100080.19;;;22.78;nan
10392;BME280;5242;49.244;6.774;2023-05-24T09:36:40;100081.25;;;23.88;nan
10392;BME280;5242;49.244;6.774;2023-05-24T09:44:33;100071.03;;;24.34;nan
10392;BME280;5242;49.244;6.774;2023-05-24T09:52:26;100060.25;;;24.20;nan
10392;BME280;5242;49.244;6.774;2023-05-24T10:00:22;100059.56;;;23.59;nan
10392;BME280;5242;49.244;6.774;2023-05-24T10:08:14;100041.72;;;23.40;nan
10392;BME280;5242;49.244;6.774;2023-05-24T10:16:06;100042.81;;;22.60;nan
10392;BME280;5242;49.244;6.774;2023-05-24T10:24:01;100025.47;;;22.99;nan
10392;BME280;5242;49.244;6.774;2023-05-24T10:31:54;100052.41;;;23.42;nan
10392;BME280;5242;49.244;6.774;2023-05-24T10:39:46;100004.31;;;23.81;nan
10392;BME280;5242;49.244;6.774;2023-05-24T10:47:38;100027.97;;;23.33;nan
10392;BME280;5242;49.244;6.774;2023-05-24T10:55:33;100008.47;;;23.37;nan
10392;BME280;5242;49.244;6.774;2023-05-24T11:03:31;99990.75;;;23.47;nan
10392;BME280;5242;49.244;6.774;2023-05-24T11:11:27;99984.56;;;24.58;nan
10392;BME280;5242;49.244;6.774;2023-05-24T11:19:34;99977.94;;;25.39;nan
10392;BME280;5242;49.244;6.774;2023-05-24T11:27:26;99976.28;;;25.67;nan
10392;BME280;5242;49.244;6.774;2023-05-24T11:35:18;99961.41;;;25.70;nan
10392;BME280;5242;49.244;6.774;2023-05-24T11:43:18;99965.72;;;24.16;nan
10392;BME280;5242;49.244;6.774;2023-05-24T11:51:10;99953.59;;;25.27;nan
10392;BME280;5242;49.244;6.774;2023-05-24T11:59:08;99969.56;;;26.03;nan
10392;BME280;5242;49.244;6.774;2023-05-24T12:07:01;99958.59;;;26.21;nan
10392;BME280;5242;49.244;6.774;2023-05-24T12:14:54;99953.81;;;26.09;nan
10392;BME280;5242;49.244;6.774;2023-05-24T12:22:51;99943.34;;;26.00;nan
10392;BME280;5242;49.244;6.774;2023-05-24T12:30:43;99938.78;;;25.68;nan
10392;BME280;5242;49.244;6.774;2023-05-24T12:38:35;99928.66;;;27.23;nan
10392;BME280;5242;49.244;6.774;2023-05-24T12:46:27;99927.91;;;26.43;nan
10392;BME280;5242;49.244;6.774;2023-05-24T12:54:22;99927.63;;;25.68;nan
10392;BME280;5242;49.244;6.774;2023-05-24T13:02:14;99925.75;;;26.26;nan
10392;BME280;5242;49.244;6.774;2023-05-24T13:10:06;99898.56;;;27.36;nan
10392;BME280;5242;49.244;6.774;2023-05-24T13:17:58;99904.50;;;26.85;nan
10392;BME280;5242;49.244;6.774;2023-05-24T13:25:51;99902.97;;;25.41;nan
10392;BME280;5242;49.244;6.774;2023-05-24T13:33:44;99898.19;;;23.99;nan
10392;BME280;5242;49.244;6.774;2023-05-24T13:41:36;99872.53;;;24.08;nan
10392;BME280;5242;49.244;6.774;2023-05-24T13:49:28;99879.41;;;23.87;nan
10392;BME280;5242;49.244;6.774;2023-05-24T13:57:20;99874.00;;;23.31;nan
10392;BME280;5242;49.244;6.774;2023-05-24T14:05:16;99891.88;;;22.10;nan
10392;BME280;5242;49.244;6.774;2023-05-24T14:13:18;99880.56;;;22.64;nan
10392;BME280;5242;49.244;6.774;2023-05-24T14:21:30;99897.78;;;22.35;nan
10392;BME280;5242;49.244;6.774;2023-05-24T14:29:23;99890.31;;;21.04;nan
10392;BME280;5242;49.244;6.774;2023-05-24T14:37:14;99884.28;;;20.44;nan
10392;BME280;5242;49.244;6.774;2023-05-24T14:45:09;99887.66;;;19.80;nan
10392;BME280;5242;49.244;6.774;2023-05-24T14:53:01;99904.22;;;19.83;nan
10392;BME280;5242;49.244;6.774;2023-05-24T15:00:59;99907.75;;;19.28;nan
10392;BME280;5242;49.244;6.774;2023-05-24T15:08:51;99913.84;;;18.87;nan
10392;BME280;5242;49.244;6.774;2023-05-24T15:16:43;99931.19;;;18.73;nan
10392;BME280;5242;49.244;6.774;2023-05-24T15:24:36;99934.06;;;18.37;nan
10392;BME280;5242;49.244;6.774;2023-05-24T15:32:28;99948.63;;;17.84;nan
10392;BME280;5242;49.244;6.774;2023-05-24T15:40:20;99954.88;;;17.52;nan
10392;BME280;5242;49.244;6.774;2023-05-24T15:48:15;99956.66;;;16.98;nan
10392;BME280;5242;49.244;6.774;2023-05-24T15:56:07;99965.66;;;16.88;nan
10392;BME280;5242;49.244;6.774;2023-05-24T16:03:59;99971.50;;;16.79;nan
10392;BME280;5242;49.244;6.774;2023-05-24T16:11:51;99966.94;;;16.46;nan
10392;BME280;5242;49.244;6.774;2023-05-24T16:19:43;99961.06;;;16.44;nan
10392;BME280;5242;49.244;6.774;2023-05-24T16:27:40;99953.97;;;16.43;nan
10392;BME280;5242;49.244;6.774;2023-05-24T16:35:32;99952.66;;;16.22;nan
10392;BME280;5242;49.244;6.774;2023-05-24T16:43:24;99939.31;;;16.21;nan
10392;BME280;5242;49.244;6.774;2023-05-24T16:51:16;99942.66;;;16.00;nan
10392;BME280;5242;49.244;6.774;2023-05-24T16:59:08;99934.09;;;16.08;nan
10392;BME280;5242;49.244;6.774;2023-05-24T17:07:00;99942.31;;;16.05;nan
10392;BME280;5242;49.244;6.774;2023-05-24T17:14:52;99942.41;;;15.71;nan
10392;BME280;5242;49.244;6.774;2023-05-24T17:22:44;99942.63;;;15.93;nan
10392;BME280;5242;49.244;6.774;2023-05-24T17:30:36;99962.13;;;15.80;nan
10392;BME280;5242;49.244;6.774;2023-05-24T17:38:29;99984.16;;;15.54;nan
10392;BME280;5242;49.244;6.774;2023-05-24T17:46:23;99990.00;;;15.15;nan
10392;BME280;5242;49.244;6.774;2023-05-24T17:54:16;100002.06;;;14.80;nan
10392;BME280;5242;49.244;6.774;2023-05-24T18:02:07;100013.28;;;14.68;nan
10392;BME280;5242;49.244;6.774;2023-05-24T18:09:59;100014.75;;;14.62;nan
10392;BME280;5242;49.244;6.774;2023-05-24T18:17:52;100014.44;;;14.44;nan
10392;BME280;5242;49.244;6.774;2023-05-24T18:25:43;100010.28;;;14.27;nan
10392;BME280;5242;49.244;6.774;2023-05-24T18:33:36;100014.03;;;14.19;nan
10392;BME280;5242;49.244;6.774;2023-05-24T18:41:31;100015.50;;;14.12;nan
10392;BME280;5242;49.244;6.774;2023-05-24T18:49:23;100019.63;;;14.03;nan
10392;BME280;5242;49.244;6.774;2023-05-24T18:57:14;100022.38;;;14.03;nan
10392;BME280;5242;49.244;6.774;2023-05-24T19:05:07;100024.44;;;13.86;nan
10392;BME280;5242;49.244;6.774;2023-05-24T19:12:59;100034.91;;;13.61;nan
10392;BME280;5242;49.244;6.774;2023-05-24T19:20:53;100042.19;;;13.34;nan
10392;BME280;5242;49.244;6.774;2023-05-24T19:28:45;100040.38;;;13.22;nan
10392;BME280;5242;49.244;6.774;2023-05-24T19:36:42;100041.59;;;13.25;nan
10392;BME280;5242;49.244;6.774;2023-05-24T19:44:34;100048.06;;;13.17;nan
10392;BME280;5242;49.244;6.774;2023-05-24T19:52:25;100052.72;;;13.16;nan
10392;BME280;5242;49.244;6.774;2023-05-24T20:00:18;100057.66;;;13.26;nan
10392;BME280;5242;49.244;6.774;2023-05-24T20:08:10;100061.53;;;13.25;nan
10392;BME280;5242;49.244;6.774;2023-05-24T20:16:02;100060.22;;;13.19;nan
10392;BME280;5242;49.244;6.774;2023-05-24T20:23:54;100071.59;;;13.21;nan
10392;BME280;5242;49.244;6.774;2023-05-24T20:31:49;100074.22;;;13.34;nan
10392;BME280;5242;49.244;6.774;2023-05-24T20:39:42;100074.88;;;13.27;nan
10392;BME280;5242;49.244;6.774;2023-05-24T20:47:34;100068.78;;;13.18;nan
10392;BME280;5242;49.244;6.774;2023-05-24T20:55:26;100074.19;;;12.98;nan
10392;BME280;5242;49.244;6.774;2023-05-24T21:03:18;100073.25;;;12.91;nan
10392;BME280;5242;49.244;6.774;2023-05-24T21:11:10;100068.16;;;12.89;nan
10392;BME280;5242;49.244;6.774;2023-05-24T21:19:02;100068.94;;;12.90;nan
10392;BME280;5242;49.244;6.774;2023-05-24T21:26:53;100073.53;;;12.86;nan
10392;BME280;5242;49.244;6.774;2023-05-24T21:34:45;100070.66;;;12.78;nan
10392;BME280;5242;49.244;6.774;2023-05-24T21:42:37;100061.84;;;12.69;nan
10392;BME280;5242;49.244;6.774;2023-05-24T21:50:29;100056.72;;;12.52;nan
10392;BME280;5242;49.244;6.774;2023-05-24T21:58:23;100070.91;;;12.42;nan
10392;BME280;5242;49.244;6.774;2023-05-24T22:06:15;100063.97;;;12.28;nan
10392;BME280;5242;49.244;6.774;2023-05-24T22:14:06;100061.75;;;12.18;nan
10392;BME280;5242;49.244;6.774;2023-05-24T22:21:58;100068.00;;;12.03;nan
10392;BME280;5242;49.244;6.774;2023-05-24T22:29:50;100057.34;;;11.85;nan
10392;BME280;5242;49.244;6.774;2023-05-24T22:37:42;100064.06;;;11.60;nan
10392;BME280;5242;49.244;6.774;2023-05-24T22:45:34;100059.34;;;11.44;nan
10392;BME280;5242;49.244;6.774;2023-05-24T22:53:26;100066.19;;;11.38;nan
10392;BME280;5242;49.244;6.774;2023-05-24T23:01:19;100067.13;;;11.30;nan
10392;BME280;5242;49.244;6.774;2023-05-24T23:09:11;100063.28;;;11.19;nan
10392;BME280;5242;49.244;6.774;2023-05-24T23:17:04;100059.00;;;11.05;nan
10392;BME280;5242;49.244;6.774;2023-05-24T23:24:56;100060.16;;;10.92;nan
10392;BME280;5242;49.244;6.774;2023-05-24T23:32:48;100072.41;;;10.86;nan
10392;BME280;5242;49.244;6.774;2023-05-24T23:40:40;100076.41;;;10.64;nan
10392;BME280;5242;49.244;6.774;2023-05-24T23:48:32;100073.34;;;10.41;nan
10392;BME280;5242;49.244;6.774;2023-05-24T23:56:24;100067.13;;;10.19;nan
